createdAt,value
2019-04-25T00:00:51.802Z,100548.09
2019-04-25T00:06:16.678Z,100545.93
2019-04-25T00:08:46.013Z,100543.51
2019-04-25T00:22:12.043Z,100541.64
2019-04-25T00:25:12.933Z,100540.88
2019-04-25T00:30:08.864Z,100531.42
2019-04-25T00:32:38.160Z,100531.63
2019-04-25T00:35:07.523Z,100533.60
2019-04-25T00:37:36.819Z,100535.02
2019-04-25T00:43:02.000Z,100536.17
2019-04-25T00:45:31.716Z,100537.50
2019-04-25T00:48:04.372Z,100539.38
2019-04-25T00:50:33.753Z,100542.22
2019-04-25T00:53:03.083Z,100545.83
2019-04-25T00:55:32.373Z,100547.62
2019-04-25T00:58:21.519Z,100545.06
2019-04-25T01:01:29.532Z,100558.69
2019-04-25T01:06:33.643Z,100560.79
2019-04-25T01:11:58.727Z,100555.87
2019-04-25T01:17:35.334Z,100556.98
2019-04-25T01:20:05.315Z,100562.68
2019-04-25T01:22:34.610Z,100560.00
2019-04-25T01:28:18.156Z,100561.33
2019-04-25T01:36:36.407Z,100567.95
2019-04-25T01:42:39.267Z,100562.65
2019-04-25T01:51:05.758Z,100570.41
2019-04-25T01:53:54.834Z,100570.04
2019-04-25T01:56:25.050Z,100563.23
2019-04-25T01:59:13.512Z,100562.65
2019-04-25T02:01:56.728Z,100561.91
2019-04-25T02:07:14.474Z,100563.61
2019-04-25T02:09:43.798Z,100558.31
2019-04-25T02:12:33.518Z,100557.63
2019-04-25T02:17:37.474Z,100550.46
2019-04-25T02:20:25.923Z,100543.66
2019-04-25T02:22:55.665Z,100543.66
2019-04-25T02:25:26.270Z,100548.09
2019-04-25T02:27:56.307Z,100549.14
2019-04-25T02:35:50.135Z,100546.55
2019-04-25T02:38:19.443Z,100556.00
2019-04-25T02:41:09.003Z,100549.57
2019-04-25T02:46:55.831Z,100544.09
2019-04-25T02:49:44.712Z,100538.44
2019-04-25T02:55:30.984Z,100533.66
2019-04-25T02:57:48.210Z,100537.17
2019-04-25T03:01:10.739Z,100538.58
2019-04-25T03:03:34.776Z,100533.30
2019-04-25T03:09:00.220Z,100539.75
2019-04-25T03:11:49.779Z,100536.16
2019-04-25T03:14:19.097Z,100544.50
2019-04-25T03:20:06.500Z,100530.64
2019-04-25T03:22:44.626Z,100523.26
2019-04-25T03:25:25.471Z,100521.66
2019-04-25T03:27:54.784Z,100521.66
2019-04-25T03:30:44.934Z,100512.48
2019-04-25T03:33:19.337Z,100512.48
2019-04-25T03:36:05.524Z,100520.61
2019-04-25T03:41:10.273Z,100510.58
2019-04-25T03:43:39.601Z,100513.22
2019-04-25T03:46:08.884Z,100508.52
2019-04-25T03:48:38.271Z,100514.58
2019-04-25T03:51:08.007Z,100519.10
2019-04-25T03:56:14.658Z,100524.03
2019-04-25T03:58:55.583Z,100529.10
2019-04-25T04:01:36.163Z,100518.33
2019-04-25T04:04:06.719Z,100518.33
2019-04-25T04:06:36.606Z,100527.41
2019-04-25T04:09:07.866Z,100535.34
2019-04-25T04:11:38.064Z,100532.61
2019-04-25T04:14:08.202Z,100530.23
2019-04-25T04:19:16.277Z,100541.41
2019-04-25T04:22:05.377Z,100543.56
2019-04-25T04:24:48.360Z,100544.70
2019-04-25T04:27:18.445Z,100547.84
2019-04-25T04:29:47.740Z,100544.16
2019-04-25T04:32:17.355Z,100544.06
2019-04-25T04:37:23.667Z,100544.59
2019-04-25T04:40:05.393Z,100546.65
2019-04-25T04:42:34.703Z,100565.77
2019-04-25T04:45:04.184Z,100565.77
2019-04-25T04:47:53.345Z,100583.25
2019-04-25T04:50:43.441Z,100585.53
2019-04-25T04:53:14.986Z,100585.53
2019-04-25T04:55:44.668Z,100579.00
2019-04-25T04:58:14.999Z,100563.80
2019-04-25T05:00:57.011Z,100564.47
2019-04-25T05:06:43.679Z,100556.42
2019-04-25T05:09:16.571Z,100556.42
2019-04-25T05:11:45.877Z,100549.78
2019-04-25T05:14:16.166Z,100555.66
2019-04-25T05:16:46.242Z,100543.45
2019-04-25T05:19:16.749Z,100547.31
2019-04-25T05:21:46.580Z,100546.56
2019-04-25T05:24:17.110Z,100547.13
2019-04-25T05:27:05.953Z,100555.43
2019-04-25T05:29:35.243Z,100549.93
2019-04-25T05:32:04.551Z,100557.30
2019-04-25T05:34:34.430Z,100555.58
2019-04-25T05:37:26.412Z,100538.91
2019-04-25T05:39:54.980Z,100541.17
2019-04-25T05:42:44.311Z,100547.87
2019-04-25T05:45:16.035Z,100539.97
2019-04-25T05:47:45.434Z,100534.86
2019-04-25T05:50:15.664Z,100545.84
2019-04-25T05:52:46.030Z,100552.43
2019-04-25T05:55:18.955Z,100548.44
2019-04-25T05:57:50.111Z,100557.12
2019-04-25T06:00:19.101Z,100552.63
2019-04-25T06:02:48.327Z,100562.52
2019-04-25T06:07:54.241Z,100545.11
2019-04-25T06:10:45.047Z,100542.22
2019-04-25T06:13:33.372Z,100537.20
2019-04-25T06:19:18.009Z,100538.02
2019-04-25T06:21:43.569Z,100531.66
2019-04-25T06:24:34.326Z,100534.78
2019-04-25T06:27:24.329Z,100530.03
2019-04-25T06:30:14.383Z,100520.52
2019-04-25T06:32:44.337Z,100510.45
2019-04-25T06:35:14.319Z,100517.06
2019-04-25T06:37:44.714Z,100511.52
2019-04-25T06:40:34.632Z,100507.09
2019-04-25T06:43:04.187Z,100511.46
2019-04-25T06:45:55.219Z,100513.20
2019-04-25T06:48:43.351Z,100507.05
2019-04-25T06:51:13.505Z,100493.53
2019-04-25T06:53:43.583Z,100500.01
2019-04-25T06:56:14.022Z,100501.00
2019-04-25T06:59:25.573Z,100495.23
2019-04-25T07:01:55.926Z,100488.13
2019-04-25T07:07:18.362Z,100492.04
2019-04-25T07:09:47.738Z,100493.06
2019-04-25T07:12:19.298Z,100490.06
2019-04-25T07:14:48.607Z,100488.86
2019-04-25T07:17:17.902Z,100485.88
2019-04-25T07:19:47.201Z,100491.24
2019-04-25T07:22:16.507Z,100488.34
2019-04-25T07:24:45.806Z,100493.55
2019-04-25T07:27:34.785Z,100489.81
2019-04-25T07:33:29.550Z,100496.14
2019-04-25T07:35:58.932Z,100487.42
2019-04-25T07:38:29.060Z,100490.06
2019-04-25T07:40:59.292Z,100494.66
2019-04-25T07:43:29.569Z,100489.58
2019-04-25T07:45:59.612Z,100488.95
2019-04-25T07:48:28.913Z,100489.08
2019-04-25T07:50:58.228Z,100487.38
2019-04-25T07:53:29.310Z,100492.67
2019-04-25T07:55:58.571Z,100490.97
2019-04-25T08:01:17.867Z,100494.50
2019-04-25T08:03:47.169Z,100488.78
2019-04-25T08:06:35.768Z,100482.80
2019-04-25T08:12:06.503Z,100480.65
2019-04-25T08:14:54.719Z,100473.45
2019-04-25T08:17:44.148Z,100479.25
2019-04-25T08:28:33.972Z,100468.49
2019-04-25T08:31:03.634Z,100467.87
2019-04-25T08:33:34.526Z,100471.00
2019-04-25T08:36:08.934Z,100460.31
2019-04-25T08:38:36.104Z,100463.20
2019-04-25T08:41:06.282Z,100459.00
2019-04-25T08:46:29.262Z,100447.98
2019-04-25T08:49:17.476Z,100448.70
2019-04-25T08:51:46.830Z,100451.15
2019-04-25T08:54:39.733Z,100449.98
2019-04-25T09:00:06.882Z,100450.52
2019-04-25T09:05:45.854Z,100452.67
2019-04-25T09:08:14.231Z,100443.77
2019-04-25T09:10:44.969Z,100452.80
2019-04-25T09:13:15.721Z,100439.06
2019-04-25T09:15:45.732Z,100446.90
2019-04-25T09:18:16.114Z,100453.77
2019-04-25T09:20:46.562Z,100445.15
2019-04-25T09:23:16.527Z,100435.70
2019-04-25T09:28:20.548Z,100438.41
2019-04-25T09:30:49.866Z,100452.23
2019-04-25T09:33:19.138Z,100445.09
2019-04-25T09:35:48.635Z,100442.40
2019-04-25T09:38:36.995Z,100449.14
2019-04-25T09:41:06.293Z,100446.16
2019-04-25T09:43:35.853Z,100440.58
2019-04-25T09:49:08.139Z,100436.21
2019-04-25T09:51:44.621Z,100443.34
2019-04-25T09:54:33.684Z,100447.09
2019-04-25T10:00:03.644Z,100430.98
2019-04-25T10:02:33.634Z,100429.32
2019-04-25T10:05:04.008Z,100437.55
2019-04-25T10:07:34.019Z,100428.59
2019-04-25T10:10:03.794Z,100424.86
2019-04-25T10:12:34.451Z,100425.25
2019-04-25T10:15:43.010Z,100428.41
2019-04-25T10:18:14.203Z,100430.95
2019-04-25T10:20:45.151Z,100429.38
2019-04-25T10:23:34.273Z,100415.51
2019-04-25T10:29:14.480Z,100414.84
2019-04-25T10:31:44.336Z,100424.67
2019-04-25T10:34:33.749Z,100421.25
2019-04-25T10:39:55.507Z,100427.98
2019-04-25T10:42:24.095Z,100434.39
2019-04-25T10:44:56.163Z,100434.73
2019-04-25T10:47:24.431Z,100440.98
2019-04-25T10:53:00.959Z,100443.19
2019-04-25T10:55:30.255Z,100440.81
2019-04-25T10:57:59.563Z,100443.05
2019-04-25T11:04:01.907Z,100448.27
2019-04-25T11:06:31.306Z,100457.04
2019-04-25T11:09:00.603Z,100470.47
2019-04-25T11:11:30.028Z,100473.59
2019-04-25T11:13:59.926Z,100477.09
2019-04-25T11:16:29.224Z,100469.11
2019-04-25T11:18:58.534Z,100469.00
2019-04-25T11:21:27.817Z,100465.74
2019-04-25T11:23:57.135Z,100477.17
2019-04-25T11:29:41.648Z,100479.28
2019-04-25T11:32:13.217Z,100472.55
2019-04-25T11:34:44.821Z,100472.86
2019-04-25T11:37:14.725Z,100482.52
2019-04-25T11:40:04.450Z,100468.76
2019-04-25T11:42:47.096Z,100471.64
2019-04-25T11:45:57.063Z,100470.10
2019-04-25T11:48:26.702Z,100478.55
2019-04-25T11:50:55.995Z,100476.70
2019-04-25T11:53:25.400Z,100478.61
2019-04-25T11:58:45.539Z,100486.31
2019-04-25T12:04:04.165Z,100486.64
2019-04-25T12:06:33.658Z,100481.87
2019-04-25T12:09:04.124Z,100478.04
2019-04-25T12:11:34.264Z,100482.41
2019-04-25T12:16:40.401Z,100478.89
2019-04-25T12:19:09.706Z,100493.50
2019-04-25T12:21:39.003Z,100490.68
2019-04-25T12:24:08.307Z,100493.75
2019-04-25T12:26:37.627Z,100490.11
2019-04-25T12:29:25.837Z,100496.89
2019-04-25T12:31:56.229Z,100499.89
2019-04-25T12:34:26.196Z,100492.48
2019-04-25T12:36:55.595Z,100491.45
2019-04-25T12:39:24.944Z,100501.94
2019-04-25T12:41:55.715Z,100491.08
2019-04-25T12:44:46.259Z,100493.88
2019-04-25T12:49:54.847Z,100502.03
2019-04-25T12:52:25.382Z,100506.00
2019-04-25T12:54:57.216Z,100506.16
2019-04-25T12:57:25.956Z,100504.57
2019-04-25T12:59:55.505Z,100502.14
2019-04-25T13:02:26.322Z,100500.81
2019-04-25T13:07:49.379Z,100505.58
2019-04-25T13:10:18.682Z,100515.36
2019-04-25T13:12:48.007Z,100511.97
2019-04-25T13:15:20.351Z,100514.64
2019-04-25T13:17:49.685Z,100519.33
2019-04-25T13:23:09.022Z,100514.95
2019-04-25T13:25:38.670Z,100519.22
2019-04-25T13:28:26.871Z,100513.68
2019-04-25T13:31:15.118Z,100518.31
2019-04-25T13:34:04.681Z,100518.36
2019-04-25T13:42:02.087Z,100531.61
2019-04-25T13:49:56.368Z,100523.12
2019-04-25T13:53:05.000Z,100530.79
2019-04-25T13:55:34.681Z,100531.97
2019-04-25T14:00:55.375Z,100538.31
2019-04-25T14:03:24.973Z,100537.47
2019-04-25T14:05:55.710Z,100534.93
2019-04-25T14:08:25.674Z,100544.77
2019-04-25T14:10:56.109Z,100543.47
2019-04-25T14:13:26.490Z,100551.78
2019-04-25T14:16:15.399Z,100551.70
2019-04-25T14:19:03.608Z,100551.44
2019-04-25T14:21:33.537Z,100551.38
2019-04-25T14:24:04.072Z,100558.97
2019-04-25T14:26:33.468Z,100556.22
2019-04-25T14:29:04.224Z,100556.66
2019-04-25T14:31:45.466Z,100556.66
2019-04-25T14:34:05.257Z,100523.96
2019-04-25T14:36:34.601Z,100570.30
2019-04-25T14:41:59.571Z,100557.95
2019-04-25T14:44:28.883Z,100564.56
2019-04-25T14:46:58.198Z,100562.31
2019-04-25T14:54:56.817Z,100579.08
2019-04-25T15:02:41.544Z,100586.08
2019-04-25T15:05:30.957Z,100598.20
2019-04-25T15:08:00.943Z,100593.20
2019-04-25T15:10:37.928Z,100596.14
2019-04-25T15:15:43.546Z,100600.66
2019-04-25T15:18:12.851Z,100589.44
2019-04-25T15:20:42.172Z,100593.19
2019-04-25T15:23:11.482Z,100595.59
2019-04-25T15:25:41.252Z,100593.23
2019-04-25T15:28:11.843Z,100606.64
2019-04-25T15:30:41.220Z,100603.69
2019-04-25T15:36:05.623Z,100601.91
2019-04-25T15:38:53.838Z,100609.27
2019-04-25T15:41:42.046Z,100602.39
2019-04-25T15:44:30.896Z,100605.20
2019-04-25T15:49:37.452Z,100596.61
2019-04-25T15:55:06.578Z,100600.38
2019-04-25T15:57:28.185Z,100607.30
2019-04-25T15:59:58.938Z,100607.36
2019-04-25T16:02:28.782Z,100610.50
2019-04-25T16:04:59.360Z,100610.06
2019-04-25T16:07:29.065Z,100600.20
2019-04-25T16:10:01.543Z,100603.72
2019-04-25T16:12:30.869Z,100610.13
2019-04-25T16:15:00.183Z,100623.06
2019-04-25T16:17:30.625Z,100619.76
2019-04-25T16:20:00.628Z,100613.16
2019-04-25T16:25:18.228Z,100617.94
2019-04-25T16:27:47.541Z,100622.68
2019-04-25T16:32:53.850Z,100624.23
2019-04-25T16:35:42.793Z,100618.46
2019-04-25T16:38:12.621Z,100622.66
2019-04-25T16:48:51.356Z,100634.09
2019-04-25T16:51:20.655Z,100633.72
2019-04-25T16:53:50.134Z,100644.13
2019-04-25T16:56:19.439Z,100644.91
2019-04-25T16:58:48.749Z,100650.12
2019-04-25T17:01:18.105Z,100645.12
2019-04-25T17:03:47.578Z,100646.36
2019-04-25T17:06:16.908Z,100648.44
2019-04-25T17:08:46.738Z,100643.02
2019-04-25T17:11:16.696Z,100635.99
2019-04-25T17:16:55.251Z,100638.20
2019-04-25T17:22:12.969Z,100661.74
2019-04-25T17:24:42.555Z,100668.98
2019-04-25T17:27:12.027Z,100666.91
2019-04-25T17:29:41.336Z,100668.95
2019-04-25T17:32:29.582Z,100674.29
2019-04-25T17:35:17.774Z,100674.17
2019-04-25T17:38:08.677Z,100672.56
2019-04-25T17:40:37.993Z,100682.75
2019-04-25T17:43:18.650Z,100679.23
2019-04-25T17:45:47.982Z,100678.36
2019-04-25T17:48:20.203Z,100676.05
2019-04-25T17:50:49.515Z,100676.28
2019-04-25T17:53:37.873Z,100682.95
2019-04-25T17:56:07.163Z,100684.52
2019-04-25T17:58:36.765Z,100686.80
2019-04-25T18:04:16.124Z,100683.56
2019-04-25T18:06:45.429Z,100681.09
2019-04-25T18:09:14.721Z,100689.66
2019-04-25T18:11:44.043Z,100687.69
2019-04-25T18:14:13.363Z,100676.34
2019-04-25T18:17:01.589Z,100692.98
2019-04-25T18:19:49.785Z,100695.59
2019-04-25T18:22:39.119Z,100695.39
2019-04-25T18:25:27.992Z,100709.14
2019-04-25T18:28:02.732Z,100708.43
2019-04-25T18:30:32.168Z,100702.75
2019-04-25T18:33:20.405Z,100702.78
2019-04-25T18:41:34.126Z,100703.14
2019-04-25T18:44:04.461Z,100713.59
2019-04-25T18:49:13.039Z,100722.97
2019-04-25T18:51:54.454Z,100718.57
2019-04-25T18:54:32.305Z,100722.27
2019-04-25T18:57:16.912Z,100722.69
2019-04-25T19:00:05.120Z,100725.55
2019-04-25T19:02:53.362Z,100726.73
2019-04-25T19:05:41.593Z,100725.03
2019-04-25T19:08:11.088Z,100723.75
2019-04-25T19:10:40.788Z,100727.07
2019-04-25T19:13:13.016Z,100737.45
2019-04-25T19:18:30.877Z,100745.75
2019-04-25T19:21:00.228Z,100743.87
2019-04-25T19:23:29.576Z,100744.83
2019-04-25T19:25:58.911Z,100746.82
2019-04-25T19:28:28.216Z,100748.84
2019-04-25T19:30:57.621Z,100753.39
2019-04-25T19:33:35.573Z,100746.09
2019-04-25T19:35:57.972Z,100749.23
2019-04-25T19:38:30.158Z,100747.62
2019-04-25T19:44:07.390Z,100758.77
2019-04-25T19:46:55.577Z,100763.50
2019-04-25T19:49:24.909Z,100755.37
2019-04-25T19:51:54.230Z,100761.23
2019-04-25T19:54:43.248Z,100758.41
2019-04-25T19:57:13.473Z,100764.48
2019-04-25T19:59:43.271Z,100751.86
2019-04-25T20:02:32.706Z,100753.28
2019-04-25T20:05:20.990Z,100751.98
2019-04-25T20:08:09.199Z,100754.06
2019-04-25T20:10:44.039Z,100754.66
2019-04-25T20:13:14.339Z,100747.61
2019-04-25T20:15:44.592Z,100743.25
2019-04-25T20:18:14.681Z,100740.97
2019-04-25T20:26:07.435Z,100759.36
2019-04-25T20:28:36.791Z,100754.06
2019-04-25T20:31:06.084Z,100749.67
2019-04-25T20:33:35.392Z,100755.17
2019-04-25T20:36:17.030Z,100757.81
2019-04-25T20:38:35.833Z,100758.77
2019-04-25T20:43:40.038Z,100759.45
2019-04-25T20:46:09.356Z,100760.88
2019-04-25T20:48:38.661Z,100750.45
2019-04-25T20:51:07.951Z,100744.38
2019-04-25T20:53:37.277Z,100745.52
2019-04-25T20:56:06.694Z,100746.63
2019-04-25T20:58:36.014Z,100746.45
2019-04-25T21:01:05.332Z,100755.72
2019-04-25T21:03:34.701Z,100750.97
2019-04-25T21:08:44.325Z,100753.25
2019-04-25T21:11:13.623Z,100763.63
2019-04-25T21:14:01.902Z,100769.69
2019-04-25T21:16:50.539Z,100765.13
2019-04-25T21:19:28.062Z,100769.86
2019-04-25T21:21:57.357Z,100773.61
2019-04-25T21:24:26.665Z,100784.78
2019-04-25T21:26:56.759Z,100788.75
2019-04-25T21:29:27.011Z,100785.16
2019-04-25T21:31:56.719Z,100787.43
2019-04-25T21:34:31.255Z,100799.35
2019-04-25T21:36:58.432Z,100802.92
2019-04-25T21:39:47.955Z,100808.53
2019-04-25T21:48:00.946Z,100820.93
2019-04-25T21:50:31.960Z,100834.59
2019-04-25T21:53:03.255Z,100827.80
2019-04-25T21:58:22.284Z,100829.33
2019-04-25T22:01:15.760Z,100833.70
2019-04-25T22:03:45.072Z,100837.10
2019-04-25T22:06:17.754Z,100839.01
2019-04-25T22:08:47.104Z,100840.88
2019-04-25T22:11:16.434Z,100843.34
2019-04-25T22:13:47.473Z,100845.94
2019-04-25T22:16:18.562Z,100847.24
2019-04-25T22:18:49.569Z,100846.27
2019-04-25T22:24:15.065Z,100841.30
2019-04-25T22:32:31.363Z,100822.95
2019-04-25T22:35:19.567Z,100844.55
2019-04-25T22:37:48.862Z,100844.91
2019-04-25T22:40:18.164Z,100844.81
2019-04-25T22:42:47.449Z,100851.94
2019-04-25T22:45:16.797Z,100851.94
2019-04-25T22:47:46.074Z,100850.03
2019-04-25T22:50:15.523Z,100856.36
2019-04-25T22:55:34.722Z,100844.24
2019-04-25T22:58:23.252Z,100843.03
2019-04-25T23:00:52.627Z,100843.03
2019-04-25T23:06:21.032Z,100846.72
2019-04-25T23:09:10.177Z,100843.33
2019-04-25T23:11:40.488Z,100843.33
2019-04-25T23:14:11.529Z,100800.19
2019-04-25T23:16:40.806Z,100842.59
2019-04-25T23:21:58.531Z,100825.47
2019-04-25T23:27:37.746Z,100827.37
2019-04-25T23:32:57.515Z,100821.97
2019-04-25T23:35:31.791Z,100821.97
2019-04-25T23:37:57.831Z,100830.84
2019-04-25T23:40:27.137Z,100834.58
2019-04-25T23:42:56.599Z,100839.20
2019-04-25T23:45:25.911Z,100843.03
2019-04-25T23:48:14.455Z,100832.78
2019-04-25T23:50:44.158Z,100835.59
2019-04-25T23:53:13.444Z,100839.88
2019-04-25T23:55:42.754Z,100836.99
2019-04-25T23:58:12.052Z,100832.03
